createdAt,value
2023-01-24T00:03:23.851Z,86.65
2023-01-24T00:08:27.480Z,87.54
2023-01-24T00:13:31.238Z,87.73
2023-01-24T00:18:36.380Z,87.61
2023-01-24T00:23:40.929Z,87.42
2023-01-24T00:28:44.221Z,86.96
2023-01-24T00:33:49.388Z,86.78
2023-01-24T00:38:52.757Z,87.18
2023-01-24T00:43:56.071Z,87.99
2023-01-24T00:49:01.358Z,87.92
2023-01-24T00:54:05.329Z,87.98
2023-01-24T00:59:08.564Z,88.33
2023-01-24T01:04:14.036Z,88.43
2023-01-24T01:09:17.552Z,88.45
2023-01-24T01:14:21.007Z,87.47
2023-01-24T01:19:25.708Z,87.27
2023-01-24T01:24:29.111Z,87.76
2023-01-24T01:29:32.568Z,86.62
2023-01-24T01:34:37.902Z,87.20
2023-01-24T01:39:41.168Z,87.21
2023-01-24T01:44:48.203Z,86.91
2023-01-24T01:49:59.486Z,86.92
2023-01-24T01:55:06.709Z,87.59
2023-01-24T02:00:15.391Z,87.37
2023-01-24T02:05:25.183Z,87.45
2023-01-24T02:10:50.909Z,87.58
2023-01-24T02:16:12.624Z,87.03
2023-01-24T02:21:18.618Z,87.58
2023-01-24T02:26:25.472Z,87.38
2023-01-24T02:31:29.655Z,87.33
2023-01-24T02:36:36.175Z,87.02
2023-01-24T02:41:46.812Z,87.07
2023-01-24T02:46:50.091Z,87.83
2023-01-24T02:52:10.784Z,87.25
2023-01-24T02:57:33.106Z,87.97
2023-01-24T03:02:36.458Z,87.38
2023-01-24T03:07:45.492Z,87.15
2023-01-24T03:13:07.546Z,87.61
2023-01-24T03:18:28.876Z,87.86
2023-01-24T03:23:49.267Z,87.40
2023-01-24T03:29:11.753Z,87.50
2023-01-24T03:34:33.895Z,88.07
2023-01-24T03:39:54.540Z,88.01
2023-01-24T03:44:59.388Z,88.24
2023-01-24T03:50:19.849Z,87.92
2023-01-24T03:55:24.037Z,88.36
2023-01-24T04:00:29.301Z,88.90
2023-01-24T04:05:34.725Z,88.37
2023-01-24T04:10:38.189Z,89.00
2023-01-24T04:15:42.920Z,88.72
2023-01-24T04:20:46.321Z,88.46
2023-01-24T04:25:57.867Z,88.69
2023-01-24T04:31:04.522Z,89.11
2023-01-24T04:36:10.606Z,88.72
2023-01-24T04:41:15.289Z,88.39
2023-01-24T04:46:20.213Z,88.78
2023-01-24T04:51:23.612Z,88.54
2023-01-24T04:56:27.161Z,88.77
2023-01-24T05:01:31.964Z,88.53
2023-01-24T05:06:36.484Z,88.90
2023-01-24T05:11:39.917Z,89.50
2023-01-24T05:16:44.994Z,89.50
2023-01-24T05:21:48.310Z,88.96
2023-01-24T05:26:51.874Z,89.54
2023-01-24T05:31:56.754Z,89.67
2023-01-24T05:37:00.097Z,89.04
2023-01-24T05:42:03.480Z,88.87
2023-01-24T05:47:08.362Z,89.06
2023-01-24T05:52:11.705Z,89.82
2023-01-24T05:57:15.153Z,89.67
2023-01-24T06:02:19.854Z,89.78
2023-01-24T06:07:23.217Z,89.77
2023-01-24T06:12:26.653Z,88.92
2023-01-24T06:17:31.413Z,88.60
2023-01-24T06:22:43.349Z,89.38
2023-01-24T06:27:47.463Z,88.69
2023-01-24T06:33:19.425Z,88.92
2023-01-24T06:38:25.781Z,88.23
2023-01-24T06:43:29.642Z,87.81
2023-01-24T06:48:34.354Z,87.79
2023-01-24T06:53:37.654Z,86.85
2023-01-24T06:58:40.910Z,87.02
2023-01-24T07:03:45.672Z,86.79
2023-01-24T07:08:49.242Z,86.29
2023-01-24T07:13:52.694Z,85.12
2023-01-24T07:18:58.511Z,84.14
2023-01-24T07:24:02.221Z,84.06
2023-01-24T07:29:05.708Z,83.86
2023-01-24T07:34:13.358Z,83.90
2023-01-24T07:39:18.951Z,80.55
2023-01-24T07:44:22.276Z,78.67
2023-01-24T07:49:27.005Z,77.83
2023-01-24T07:54:30.355Z,78.50
2023-01-24T07:59:38.540Z,77.96
2023-01-24T08:04:43.963Z,78.53
2023-01-24T08:09:48.193Z,78.77
2023-01-24T08:14:51.658Z,78.98
2023-01-24T08:19:57.792Z,77.99
2023-01-24T08:25:01.685Z,77.51
2023-01-24T08:30:08.816Z,78.47
2023-01-24T08:35:13.835Z,78.56
2023-01-24T08:40:17.425Z,78.28
2023-01-24T08:45:20.880Z,78.53
2023-01-24T08:50:25.701Z,77.85
2023-01-24T08:55:29.164Z,77.92
2023-01-24T09:00:33.403Z,77.74
2023-01-24T09:05:39.736Z,78.07
2023-01-24T09:10:43.007Z,78.14
2023-01-24T09:15:47.258Z,78.31
2023-01-24T09:20:52.217Z,77.63
2023-01-24T09:25:55.931Z,77.54
2023-01-24T09:30:59.495Z,77.07
2023-01-24T09:36:06.076Z,76.25
2023-01-24T09:41:19.517Z,76.26
2023-01-24T09:46:29.814Z,75.94
2023-01-24T09:51:39.192Z,73.99
2023-01-24T09:56:45.567Z,73.47
2023-01-24T10:01:49.594Z,73.71
2023-01-24T10:07:27.956Z,74.19
2023-01-24T10:12:58.679Z,68.73
2023-01-24T10:18:16.714Z,67.56
2023-01-24T10:23:27.538Z,66.78
2023-01-24T10:28:38.644Z,66.57
2023-01-24T10:33:48.590Z,65.93
2023-01-24T10:38:53.256Z,66.17
2023-01-24T10:44:00.900Z,67.64
2023-01-24T10:49:09.866Z,68.38
2023-01-24T10:54:23.787Z,68.79
2023-01-24T10:59:27.323Z,69.96
2023-01-24T11:04:32.580Z,70.88
2023-01-24T11:09:37.443Z,71.96
2023-01-24T11:14:41.174Z,72.07
2023-01-24T11:19:44.767Z,73.35
2023-01-24T11:24:50.340Z,73.38
2023-01-24T11:30:09.377Z,73.75
2023-01-24T11:35:14.388Z,73.35
2023-01-24T11:40:31.435Z,73.74
2023-01-24T11:46:28.621Z,73.89
2023-01-24T11:51:52.526Z,73.82
2023-01-24T11:57:04.595Z,74.56
2023-01-24T12:02:26.625Z,74.24
2023-01-24T12:07:40.941Z,74.58
2023-01-24T12:12:56.225Z,74.61
2023-01-24T12:18:28.624Z,74.96
2023-01-24T12:23:43.709Z,75.08
2023-01-24T12:29:02.756Z,74.95
2023-01-24T12:34:22.487Z,74.75
2023-01-24T12:39:33.046Z,75.55
2023-01-24T12:44:45.318Z,76.12
2023-01-24T12:49:57.879Z,76.05
2023-01-24T12:55:14.064Z,76.46
2023-01-24T13:00:21.832Z,76.93
2023-01-24T13:05:37.292Z,77.54
2023-01-24T13:10:50.954Z,77.41
2023-01-24T13:16:09.191Z,78.49
2023-01-24T13:21:21.520Z,78.47
2023-01-24T13:27:00.652Z,78.77
2023-01-24T13:32:12.731Z,79.71
2023-01-24T13:37:22.562Z,79.76
2023-01-24T13:42:35.600Z,80.14
2023-01-24T13:47:40.713Z,81.09
2023-01-24T13:52:49.252Z,81.40
2023-01-24T13:58:23.841Z,81.59
2023-01-24T14:03:35.585Z,81.88
2023-01-24T14:08:46.884Z,82.35
2023-01-24T14:14:03.787Z,83.10
2023-01-24T14:19:18.440Z,83.05
2023-01-24T14:24:26.965Z,83.74
2023-01-24T14:29:39.454Z,83.80
2023-01-24T14:34:49.509Z,84.52
2023-01-24T14:39:53.095Z,85.08
2023-01-24T14:45:01.459Z,84.86
2023-01-24T14:50:23.993Z,85.20
2023-01-24T14:55:35.999Z,85.39
2023-01-24T15:00:39.489Z,86.05
2023-01-24T15:06:02.104Z,85.67
2023-01-24T15:11:08.630Z,86.25
2023-01-24T15:16:19.704Z,86.34
2023-01-24T15:21:34.675Z,86.02
2023-01-24T15:26:43.952Z,87.02
2023-01-24T15:31:52.320Z,87.15
2023-01-24T15:37:02.211Z,86.86
2023-01-24T15:42:25.857Z,87.06
2023-01-24T15:47:55.376Z,86.73
2023-01-24T15:53:28.921Z,87.70
2023-01-24T15:58:33.439Z,87.65
2023-01-24T16:03:37.338Z,88.12
2023-01-24T16:08:42.011Z,87.99
2023-01-24T16:13:49.608Z,88.20
2023-01-24T16:18:53.133Z,87.95
2023-01-24T16:23:58.211Z,88.61
2023-01-24T16:29:01.694Z,88.74
2023-01-24T16:34:05.155Z,87.94
2023-01-24T16:39:15.788Z,88.09
2023-01-24T16:44:19.534Z,88.07
2023-01-24T16:49:23.292Z,88.27
2023-01-24T16:54:28.437Z,88.84
2023-01-24T16:59:32.104Z,88.97
2023-01-24T17:04:36.072Z,89.15
2023-01-24T17:09:41.180Z,89.41
2023-01-24T17:14:45.067Z,89.11
2023-01-24T17:19:48.676Z,88.72
2023-01-24T17:24:53.573Z,89.14
2023-01-24T17:29:57.499Z,89.36
2023-01-24T17:35:01.135Z,88.88
2023-01-24T17:40:07.750Z,89.01
2023-01-24T17:45:14.293Z,89.67
2023-01-24T17:50:18.170Z,89.06
2023-01-24T17:55:23.109Z,89.43
2023-01-24T18:00:27.008Z,89.76
2023-01-24T18:05:30.678Z,89.41
2023-01-24T18:10:39.106Z,89.26
2023-01-24T18:15:42.967Z,90.18
2023-01-24T18:20:46.427Z,89.94
2023-01-24T18:25:51.527Z,89.88
2023-01-24T18:30:55.110Z,90.50
2023-01-24T18:35:58.742Z,90.08
2023-01-24T18:41:03.876Z,90.95
2023-01-24T18:46:08.769Z,90.82
2023-01-24T18:51:14.411Z,90.03
2023-01-24T18:56:19.343Z,90.69
2023-01-24T19:01:26.003Z,90.44
2023-01-24T19:06:31.277Z,90.96
2023-01-24T19:11:38.891Z,91.14
2023-01-24T19:16:44.030Z,91.72
2023-01-24T19:21:48.319Z,91.97
2023-01-24T19:26:53.331Z,91.56
2023-01-24T19:31:56.746Z,91.58
2023-01-24T19:37:00.173Z,91.87
2023-01-24T19:42:05.401Z,92.36
2023-01-24T19:47:08.837Z,91.78
2023-01-24T19:52:12.216Z,92.13
2023-01-24T19:57:17.039Z,92.36
2023-01-24T20:02:20.618Z,91.75
2023-01-24T20:07:24.120Z,92.44
2023-01-24T20:12:29.510Z,91.53
2023-01-24T20:17:32.849Z,91.73
2023-01-24T20:22:36.148Z,91.38
2023-01-24T20:27:41.030Z,91.30
2023-01-24T20:32:44.617Z,91.37
2023-01-24T20:37:47.952Z,91.87
2023-01-24T20:42:52.933Z,92.06
2023-01-24T20:47:56.403Z,92.21
2023-01-24T20:52:59.635Z,91.50
2023-01-24T20:58:04.360Z,91.57
2023-01-24T21:03:07.866Z,92.13
2023-01-24T21:08:11.507Z,91.56
2023-01-24T21:13:16.975Z,91.57
2023-01-24T21:18:20.324Z,91.75
2023-01-24T21:23:27.065Z,91.37
2023-01-24T21:28:31.863Z,92.13
2023-01-24T21:33:35.450Z,91.76
2023-01-24T21:38:38.884Z,91.92
2023-01-24T21:43:43.614Z,91.30
2023-01-24T21:49:04.446Z,91.71
2023-01-24T21:54:10.413Z,91.36
2023-01-24T21:59:15.461Z,91.98
2023-01-24T22:04:19.340Z,91.50
2023-01-24T22:09:22.728Z,91.46
2023-01-24T22:14:30.034Z,91.98
2023-01-24T22:19:41.298Z,91.42
2023-01-24T22:24:55.283Z,91.61
2023-01-24T22:30:00.902Z,91.62
2023-01-24T22:35:04.743Z,91.35
2023-01-24T22:40:09.688Z,92.05
2023-01-24T22:45:14.839Z,91.29
2023-01-24T22:50:20.735Z,91.11
2023-01-24T22:55:24.078Z,91.86
2023-01-24T23:00:28.899Z,90.95
2023-01-24T23:05:32.703Z,91.82
2023-01-24T23:10:36.147Z,91.78
2023-01-24T23:15:58.063Z,90.96
2023-01-24T23:21:18.485Z,92.08
2023-01-24T23:26:21.953Z,91.96
2023-01-24T23:31:26.812Z,91.86
2023-01-24T23:36:31.674Z,91.59
2023-01-24T23:41:35.030Z,91.73
2023-01-24T23:46:39.727Z,92.16
2023-01-24T23:51:43.058Z,92.12
2023-01-24T23:56:46.413Z,91.80
